EDDMEGLC [LH 467]

Guest
Details From EDDM - Muenchen Franz-josef Strauss
To EGLC - London City
Flight Number LH 467
Tags Real Commercial Decoded
Created
Modified
Stats Distance 490 nm / 908 km
Max Altitude 0 ft / 0 m
Waypoints 2
Social Downloads 5
Likes 0
Share VATSIM

Download

Looking for another format? Having issues loading an existing format? Contact us
Advertisement - Login to hide

Notes

Decoded

Route

EDDM EGLC

ID Type Via Altitude Latitude Longitude Leg Dist Tot Dist Heading (true) Name
O EDDM APT - 0 ft / 0 m 48.34069˚ 11.75108˚ - 0 nm - -
O EGLC APT - 0 ft / 0 m 51.50558˚ 0.04414˚ 490 nm 490 nm 297° / 288° -

Altitude Profile

Advertisement - Login to hide

Weather


0- 5 10 15 20 25 30 35+ Temperature / ° C

Clouds and Precipitation
Forecast for 2018-05-27 18:00 UTC. Updated 5 hours ago

Ground ~20,000 ft ~40,000 ft Winds

EDDM

Details ICAO EDDM (MUC)
Name Muenchen Franz-Josef Strauss
Region Germany - Civil
Timezone Europe/Berlin (UTC+2.0)
Stats Elevation 1,487 ft / 453 m (AMSL)
Location 48.353786° 11.786117°
Runways 2
Magnetic Variation 3.216° E

METAR

EDDM 272120Z 04006KT CAVOK 18/14 Q1018 NOSIG

Decode

TAF

TAF EDDM 271700Z 2718/2824 VRB03KT CAVOK BECMG 2806/2808 09008KT

Decode

Departure Runways

ID Width Length Bearing (true) Bearing (mag) Surface Threshold Offset Overrun Length
08L 197 ft / 60 m 13,086 ft / 3,989 m 83.38° 80.16° Concrete 0 ft / 0 m 0 ft / 0 m
08R 197 ft / 60 m 13,086 ft / 3,989 m 83.37° 80.15° Concrete 0 ft / 0 m 0 ft / 0 m
26L 197 ft / 60 m 13,086 ft / 3,989 m 263.41° 260.19° Concrete 0 ft / 0 m 0 ft / 0 m
26R 197 ft / 60 m 13,086 ft / 3,989 m 263.42° 260.20° Concrete 0 ft / 0 m 0 ft / 0 m

EGLC

Details ICAO EGLC (LCY)
Name London City
Region United Kingdom
Timezone Europe/London (UTC+1.0)
Stats Elevation 19 ft / 6 m (AMSL)
Location 51.505231° 0.055175°
Runways 1
Magnetic Variation 0.319° W

METAR

EGLC 272120Z AUTO VRB02KT 6000 NCD 20/17 Q1016

Decode

TAF

Not found

Destination Runways

ID Width Length Bearing (true) Bearing (mag) Surface Threshold Offset Overrun Length
09 98 ft / 30 m 4,931 ft / 1,503 m 92.89° 93.21° Concrete 322 ft / 98 m 164 ft / 50 m
27 98 ft / 30 m 4,931 ft / 1,503 m 272.91° 273.23° Concrete 243 ft / 74 m 279 ft / 85 m

Approach Navaids

Runway Type Ident Frequency Range Bearing (true) Bearing (mag) Slope Elevation
09 Localiser ILST 111.15 MHz 18 nm / 33 km 92.91° 93.23° - 19 ft / 6 m (AMSL)
09 Glidescope ILST 111.15 MHz 10 nm / 19 km 92.90° 93.22° 5.05° 35 ft / 11 m (AMSL)
09 DME ILST 111.15 MHz 18 nm / 33 km - - - 48 ft / 15 m (AMSL)
27 Localiser ILSR 111.15 MHz 18 nm / 33 km 272.89° 273.21° - 19 ft / 6 m (AMSL)
27 Glidescope ILSR 111.15 MHz 10 nm / 19 km 272.90° 273.22° 5.50° 35 ft / 11 m (AMSL)
27 DME ILSR 111.15 MHz 18 nm / 33 km - - - 48 ft / 15 m (AMSL)

Popular Alternatives